sensor_id;sensor_type;location;lat;lon;timestamp;temperature;humidity
57108;DHT22;42987;52.916;6.542;2023-02-08T00:02:20;-1.40;99.90
57108;DHT22;42987;52.916;6.542;2023-02-08T00:04:46;-1.40;99.90
57108;DHT22;42987;52.916;6.542;2023-02-08T00:07:11;-1.40;99.90
57108;DHT22;42987;52.916;6.542;2023-02-08T00:09:37;-1.50;99.90
57108;DHT22;42987;52.916;6.542;2023-02-08T00:12:03;-1.40;99.90
57108;DHT22;42987;52.916;6.542;2023-02-08T00:14:29;-1.40;99.90
57108;DHT22;42987;52.916;6.542;2023-02-08T00:16:54;-1.40;99.90
57108;DHT22;42987;52.916;6.542;2023-02-08T00:19:20;-1.50;99.90
57108;DHT22;42987;52.916;6.542;2023-02-08T00:21:46;-1.50;99.90
57108;DHT22;42987;52.916;6.542;2023-02-08T00:24:12;-1.50;99.90
57108;DHT22;42987;52.916;6.542;2023-02-08T00:26:37;-1.50;99.90
57108;DHT22;42987;52.916;6.542;2023-02-08T00:29:03;-1.50;99.90
57108;DHT22;42987;52.916;6.542;2023-02-08T00:31:29;-1.60;99.90
57108;DHT22;42987;52.916;6.542;2023-02-08T00:33:54;-1.50;99.90
57108;DHT22;42987;52.916;6.542;2023-02-08T00:36:20;-1.50;99.90
57108;DHT22;42987;52.916;6.542;2023-02-08T00:38:46;-1.50;99.90
57108;DHT22;42987;52.916;6.542;2023-02-08T00:41:12;-1.50;99.90
57108;DHT22;42987;52.916;6.542;2023-02-08T00:43:37;-1.50;99.90
57108;DHT22;42987;52.916;6.542;2023-02-08T00:46:03;-1.50;99.90
57108;DHT22;42987;52.916;6.542;2023-02-08T00:48:29;-1.50;99.90
57108;DHT22;42987;52.916;6.542;2023-02-08T00:50:57;-1.50;99.90
57108;DHT22;42987;52.916;6.542;2023-02-08T00:53:23;-1.50;99.90
57108;DHT22;42987;52.916;6.542;2023-02-08T00:55:51;-1.50;99.90
57108;DHT22;42987;52.916;6.542;2023-02-08T00:58:16;-1.50;99.90
57108;DHT22;42987;52.916;6.542;2023-02-08T01:00:43;-1.40;99.90
57108;DHT22;42987;52.916;6.542;2023-02-08T01:03:11;-1.50;99.90
57108;DHT22;42987;52.916;6.542;2023-02-08T01:05:37;-1.50;99.90
57108;DHT22;42987;52.916;6.542;2023-02-08T01:08:03;-1.50;99.90
57108;DHT22;42987;52.916;6.542;2023-02-08T01:10:29;-1.50;99.90
57108;DHT22;42987;52.916;6.542;2023-02-08T01:12:55;-1.60;99.90
57108;DHT22;42987;52.916;6.542;2023-02-08T01:15:21;-1.60;99.90
57108;DHT22;42987;52.916;6.542;2023-02-08T01:17:46;-1.60;99.90
57108;DHT22;42987;52.916;6.542;2023-02-08T01:20:12;-1.70;99.90
57108;DHT22;42987;52.916;6.542;2023-02-08T01:22:41;-1.70;99.90
57108;DHT22;42987;52.916;6.542;2023-02-08T01:25:07;-1.70;99.90
57108;DHT22;42987;52.916;6.542;2023-02-08T01:27:33;-1.70;99.90
57108;DHT22;42987;52.916;6.542;2023-02-08T01:29:58;-1.70;99.90
57108;DHT22;42987;52.916;6.542;2023-02-08T01:32:24;-1.70;99.90
57108;DHT22;42987;52.916;6.542;2023-02-08T01:34:50;-1.70;99.90
57108;DHT22;42987;52.916;6.542;2023-02-08T01:37:16;-1.70;99.90
57108;DHT22;42987;52.916;6.542;2023-02-08T01:39:42;-1.70;99.90
57108;DHT22;42987;52.916;6.542;2023-02-08T01:42:13;-1.70;99.90
57108;DHT22;42987;52.916;6.542;2023-02-08T01:47:26;-1.60;99.90
57108;DHT22;42987;52.916;6.542;2023-02-08T01:49:52;-1.60;99.90
57108;DHT22;42987;52.916;6.542;2023-02-08T01:52:21;-1.60;99.90
57108;DHT22;42987;52.916;6.542;2023-02-08T01:54:56;-1.60;99.90
57108;DHT22;42987;52.916;6.542;2023-02-08T01:57:24;-1.50;99.90
57108;DHT22;42987;52.916;6.542;2023-02-08T02:00:15;-1.50;99.90
57108;DHT22;42987;52.916;6.542;2023-02-08T02:02:43;-1.60;99.90
57108;DHT22;42987;52.916;6.542;2023-02-08T02:05:10;-1.60;99.90
57108;DHT22;42987;52.916;6.542;2023-02-08T02:07:37;-1.50;99.90
57108;DHT22;42987;52.916;6.542;2023-02-08T02:10:25;-1.50;99.90
57108;DHT22;42987;52.916;6.542;2023-02-08T02:12:53;-1.40;99.90
57108;DHT22;42987;52.916;6.542;2023-02-08T02:15:20;-1.40;99.90
57108;DHT22;42987;52.916;6.542;2023-02-08T02:17:46;-1.50;99.90
57108;DHT22;42987;52.916;6.542;2023-02-08T02:29:09;-1.60;99.90
57108;DHT22;42987;52.916;6.542;2023-02-08T02:31:58;-1.70;99.90
57108;DHT22;42987;52.916;6.542;2023-02-08T02:37:41;-1.70;99.90
57108;DHT22;42987;52.916;6.542;2023-02-08T02:54:39;-1.70;99.90
57108;DHT22;42987;52.916;6.542;2023-02-08T02:57:09;-1.70;99.90
57108;DHT22;42987;52.916;6.542;2023-02-08T02:59:37;-1.70;99.90
57108;DHT22;42987;52.916;6.542;2023-02-08T03:02:06;-1.70;99.90
57108;DHT22;42987;52.916;6.542;2023-02-08T03:21:07;-1.70;99.90
57108;DHT22;42987;52.916;6.542;2023-02-08T03:23:30;-1.70;99.90
57108;DHT22;42987;52.916;6.542;2023-02-08T03:34:11;-1.70;99.90
57108;DHT22;42987;52.916;6.542;2023-02-08T03:36:52;-1.70;99.90
57108;DHT22;42987;52.916;6.542;2023-02-08T03:39:24;-1.70;99.90
57108;DHT22;42987;52.916;6.542;2023-02-08T03:41:54;-1.80;99.90
57108;DHT22;42987;52.916;6.542;2023-02-08T03:44:26;-1.80;99.90
57108;DHT22;42987;52.916;6.542;2023-02-08T03:46:57;-1.80;99.90
57108;DHT22;42987;52.916;6.542;2023-02-08T03:49:25;-1.80;99.90
57108;DHT22;42987;52.916;6.542;2023-02-08T03:51:55;-1.90;99.90
57108;DHT22;42987;52.916;6.542;2023-02-08T03:54:25;-1.90;99.90
57108;DHT22;42987;52.916;6.542;2023-02-08T03:57:30;-1.70;99.90
57108;DHT22;42987;52.916;6.542;2023-02-08T03:59:56;-1.80;99.90
57108;DHT22;42987;52.916;6.542;2023-02-08T04:02:25;-1.80;99.90
57108;DHT22;42987;52.916;6.542;2023-02-08T04:04:52;-1.90;99.90
57108;DHT22;42987;52.916;6.542;2023-02-08T04:07:19;-1.90;99.90
57108;DHT22;42987;52.916;6.542;2023-02-08T04:09:45;-1.90;99.90
57108;DHT22;42987;52.916;6.542;2023-02-08T04:12:11;-2.00;99.90
57108;DHT22;42987;52.916;6.542;2023-02-08T04:14:37;-2.00;99.90
57108;DHT22;42987;52.916;6.542;2023-02-08T04:17:03;-2.00;99.90
57108;DHT22;42987;52.916;6.542;2023-02-08T04:19:29;-2.10;99.90
57108;DHT22;42987;52.916;6.542;2023-02-08T04:21:55;-2.00;99.90
57108;DHT22;42987;52.916;6.542;2023-02-08T04:24:20;-2.00;99.90
57108;DHT22;42987;52.916;6.542;2023-02-08T04:26:46;-2.10;99.90
57108;DHT22;42987;52.916;6.542;2023-02-08T04:29:12;-2.10;99.90
57108;DHT22;42987;52.916;6.542;2023-02-08T04:31:41;-2.10;99.90
57108;DHT22;42987;52.916;6.542;2023-02-08T04:34:07;-2.00;99.90
57108;DHT22;42987;52.916;6.542;2023-02-08T04:36:33;-2.00;99.90
57108;DHT22;42987;52.916;6.542;2023-02-08T04:38:59;-2.00;99.90
57108;DHT22;42987;52.916;6.542;2023-02-08T04:41:24;-2.00;99.90
57108;DHT22;42987;52.916;6.542;2023-02-08T04:43:50;-2.00;99.90
57108;DHT22;42987;52.916;6.542;2023-02-08T04:46:16;-1.90;99.90
57108;DHT22;42987;52.916;6.542;2023-02-08T04:48:42;-1.90;99.90
57108;DHT22;42987;52.916;6.542;2023-02-08T04:51:08;-1.90;99.90
57108;DHT22;42987;52.916;6.542;2023-02-08T04:53:36;-1.90;99.90
57108;DHT22;42987;52.916;6.542;2023-02-08T04:56:02;-1.90;99.90
57108;DHT22;42987;52.916;6.542;2023-02-08T04:58:28;-1.90;99.90
57108;DHT22;42987;52.916;6.542;2023-02-08T05:00:54;-1.90;99.90
57108;DHT22;42987;52.916;6.542;2023-02-08T05:03:20;-1.90;99.90
57108;DHT22;42987;52.916;6.542;2023-02-08T05:05:46;-1.90;99.90
57108;DHT22;42987;52.916;6.542;2023-02-08T05:08:12;-1.90;99.90
57108;DHT22;42987;52.916;6.542;2023-02-08T05:10:43;-1.90;99.90
57108;DHT22;42987;52.916;6.542;2023-02-08T05:13:09;-1.80;99.90
57108;DHT22;42987;52.916;6.542;2023-02-08T05:15:42;-1.80;99.90
57108;DHT22;42987;52.916;6.542;2023-02-08T05:18:07;-1.80;99.90
57108;DHT22;42987;52.916;6.542;2023-02-08T05:20:33;-1.80;99.90
57108;DHT22;42987;52.916;6.542;2023-02-08T05:22:59;-1.80;99.90
57108;DHT22;42987;52.916;6.542;2023-02-08T05:25:25;-1.70;99.90
57108;DHT22;42987;52.916;6.542;2023-02-08T05:27:51;-1.90;99.90
57108;DHT22;42987;52.916;6.542;2023-02-08T05:30:17;-1.80;99.90
57108;DHT22;42987;52.916;6.542;2023-02-08T05:32:43;-1.80;99.90
57108;DHT22;42987;52.916;6.542;2023-02-08T05:35:09;-1.90;99.90
57108;DHT22;42987;52.916;6.542;2023-02-08T05:37:35;-1.80;99.90
57108;DHT22;42987;52.916;6.542;2023-02-08T05:40:01;-1.80;99.90
57108;DHT22;42987;52.916;6.542;2023-02-08T05:42:27;-1.90;99.90
57108;DHT22;42987;52.916;6.542;2023-02-08T05:44:53;-1.80;99.90
57108;DHT22;42987;52.916;6.542;2023-02-08T05:47:18;-1.90;99.90
57108;DHT22;42987;52.916;6.542;2023-02-08T05:49:44;-1.90;99.90
57108;DHT22;42987;52.916;6.542;2023-02-08T05:52:10;-1.90;99.90
57108;DHT22;42987;52.916;6.542;2023-02-08T05:54:36;-1.90;99.90
57108;DHT22;42987;52.916;6.542;2023-02-08T05:57:02;-1.90;99.90
57108;DHT22;42987;52.916;6.542;2023-02-08T05:59:28;-1.90;99.90
57108;DHT22;42987;52.916;6.542;2023-02-08T06:01:54;-1.90;99.90
57108;DHT22;42987;52.916;6.542;2023-02-08T06:04:20;-1.90;99.90
57108;DHT22;42987;52.916;6.542;2023-02-08T06:06:46;-1.90;99.90
57108;DHT22;42987;52.916;6.542;2023-02-08T06:09:11;-1.90;99.90
57108;DHT22;42987;52.916;6.542;2023-02-08T06:11:37;-2.00;99.90
57108;DHT22;42987;52.916;6.542;2023-02-08T06:14:03;-1.90;99.90
57108;DHT22;42987;52.916;6.542;2023-02-08T06:16:28;-1.90;99.90
57108;DHT22;42987;52.916;6.542;2023-02-08T06:18:55;-2.00;99.90
57108;DHT22;42987;52.916;6.542;2023-02-08T06:21:20;-1.90;99.90
57108;DHT22;42987;52.916;6.542;2023-02-08T06:23:46;-2.00;99.90
57108;DHT22;42987;52.916;6.542;2023-02-08T06:26:12;-2.00;99.90
57108;DHT22;42987;52.916;6.542;2023-02-08T06:28:40;-2.00;99.90
57108;DHT22;42987;52.916;6.542;2023-02-08T06:31:06;-2.00;99.90
57108;DHT22;42987;52.916;6.542;2023-02-08T06:33:32;-2.00;99.90
57108;DHT22;42987;52.916;6.542;2023-02-08T06:35:58;-2.00;99.90
57108;DHT22;42987;52.916;6.542;2023-02-08T06:38:23;-2.00;99.90
57108;DHT22;42987;52.916;6.542;2023-02-08T06:40:49;-2.00;99.90
57108;DHT22;42987;52.916;6.542;2023-02-08T06:43:15;-2.00;99.90
57108;DHT22;42987;52.916;6.542;2023-02-08T06:45:44;-1.90;99.90
57108;DHT22;42987;52.916;6.542;2023-02-08T06:48:10;-2.00;99.90
57108;DHT22;42987;52.916;6.542;2023-02-08T06:50:36;-2.00;99.90
57108;DHT22;42987;52.916;6.542;2023-02-08T06:53:03;-2.00;99.90
57108;DHT22;42987;52.916;6.542;2023-02-08T06:55:31;-2.00;99.90
57108;DHT22;42987;52.916;6.542;2023-02-08T06:57:57;-2.00;99.90
57108;DHT22;42987;52.916;6.542;2023-02-08T07:00:22;-2.00;99.90
57108;DHT22;42987;52.916;6.542;2023-02-08T07:02:48;-2.00;99.90
57108;DHT22;42987;52.916;6.542;2023-02-08T07:05:15;-2.00;99.90
57108;DHT22;42987;52.916;6.542;2023-02-08T07:07:41;-2.00;99.90
57108;DHT22;42987;52.916;6.542;2023-02-08T07:10:07;-2.00;99.90
57108;DHT22;42987;52.916;6.542;2023-02-08T07:12:35;-2.00;99.90
57108;DHT22;42987;52.916;6.542;2023-02-08T07:15:07;-2.00;99.90
57108;DHT22;42987;52.916;6.542;2023-02-08T07:17:33;-2.00;99.90
57108;DHT22;42987;52.916;6.542;2023-02-08T07:19:58;-2.00;99.90
57108;DHT22;42987;52.916;6.542;2023-02-08T07:22:24;-2.00;99.90
57108;DHT22;42987;52.916;6.542;2023-02-08T07:24:50;-2.00;99.90
57108;DHT22;42987;52.916;6.542;2023-02-08T07:27:16;-1.90;99.90
57108;DHT22;42987;52.916;6.542;2023-02-08T07:29:42;-1.90;99.90
57108;DHT22;42987;52.916;6.542;2023-02-08T07:32:09;-1.80;99.90
57108;DHT22;42987;52.916;6.542;2023-02-08T07:34:36;-1.80;99.90
57108;DHT22;42987;52.916;6.542;2023-02-08T07:37:03;-1.70;99.90
57108;DHT22;42987;52.916;6.542;2023-02-08T07:39:29;-1.70;99.90
57108;DHT22;42987;52.916;6.542;2023-02-08T07:41:56;-1.60;99.90
57108;DHT22;42987;52.916;6.542;2023-02-08T07:44:22;-1.60;99.90
57108;DHT22;42987;52.916;6.542;2023-02-08T07:46:48;-1.60;99.90
57108;DHT22;42987;52.916;6.542;2023-02-08T07:49:14;-1.50;99.90
57108;DHT22;42987;52.916;6.542;2023-02-08T07:51:39;-1.50;99.90
57108;DHT22;42987;52.916;6.542;2023-02-08T07:54:05;-1.60;99.90
57108;DHT22;42987;52.916;6.542;2023-02-08T07:56:31;-1.50;99.90
57108;DHT22;42987;52.916;6.542;2023-02-08T07:58:57;-1.50;99.90
57108;DHT22;42987;52.916;6.542;2023-02-08T08:01:23;-1.50;99.90
57108;DHT22;42987;52.916;6.542;2023-02-08T08:03:50;-1.40;99.90
57108;DHT22;42987;52.916;6.542;2023-02-08T08:06:18;-1.40;99.90
57108;DHT22;42987;52.916;6.542;2023-02-08T08:08:45;-1.40;99.90
57108;DHT22;42987;52.916;6.542;2023-02-08T08:11:16;-1.40;99.90
57108;DHT22;42987;52.916;6.542;2023-02-08T08:13:42;-1.40;99.90
57108;DHT22;42987;52.916;6.542;2023-02-08T08:16:11;-1.30;99.90
57108;DHT22;42987;52.916;6.542;2023-02-08T08:18:37;-1.30;99.90
57108;DHT22;42987;52.916;6.542;2023-02-08T08:21:03;-1.30;99.90
57108;DHT22;42987;52.916;6.542;2023-02-08T08:23:30;-1.20;99.90
57108;DHT22;42987;52.916;6.542;2023-02-08T08:25:58;-1.20;99.90
57108;DHT22;42987;52.916;6.542;2023-02-08T08:28:24;-1.20;99.90
57108;DHT22;42987;52.916;6.542;2023-02-08T08:30:49;-1.10;99.90
57108;DHT22;42987;52.916;6.542;2023-02-08T08:33:15;-1.10;99.90
57108;DHT22;42987;52.916;6.542;2023-02-08T08:35:41;-1.00;99.90
57108;DHT22;42987;52.916;6.542;2023-02-08T08:38:08;-1.00;99.90
57108;DHT22;42987;52.916;6.542;2023-02-08T08:40:34;-1.00;99.90
57108;DHT22;42987;52.916;6.542;2023-02-08T08:43:03;-0.80;99.90
57108;DHT22;42987;52.916;6.542;2023-02-08T08:45:29;-0.80;99.90
57108;DHT22;42987;52.916;6.542;2023-02-08T08:47:55;-0.80;99.90
57108;DHT22;42987;52.916;6.542;2023-02-08T08:50:21;-0.70;99.90
57108;DHT22;42987;52.916;6.542;2023-02-08T08:52:47;-0.70;99.90
57108;DHT22;42987;52.916;6.542;2023-02-08T08:55:12;-0.70;99.90
57108;DHT22;42987;52.916;6.542;2023-02-08T08:57:41;-0.60;99.90
57108;DHT22;42987;52.916;6.542;2023-02-08T09:00:08;-0.60;99.90
57108;DHT22;42987;52.916;6.542;2023-02-08T09:02:34;-0.50;99.90
57108;DHT22;42987;52.916;6.542;2023-02-08T09:05:00;-0.40;99.90
57108;DHT22;42987;52.916;6.542;2023-02-08T09:07:27;-0.40;99.90
57108;DHT22;42987;52.916;6.542;2023-02-08T09:09:56;-0.30;99.90
57108;DHT22;42987;52.916;6.542;2023-02-08T09:12:22;-0.20;99.90
57108;DHT22;42987;52.916;6.542;2023-02-08T09:14:48;-0.10;99.90
57108;DHT22;42987;52.916;6.542;2023-02-08T09:17:13;0.00;99.90
57108;DHT22;42987;52.916;6.542;2023-02-08T09:19:42;0.10;99.90
57108;DHT22;42987;52.916;6.542;2023-02-08T09:22:11;0.20;99.90
57108;DHT22;42987;52.916;6.542;2023-02-08T09:24:36;0.40;99.90
57108;DHT22;42987;52.916;6.542;2023-02-08T09:27:02;0.50;99.90
57108;DHT22;42987;52.916;6.542;2023-02-08T09:29:28;0.50;99.90
57108;DHT22;42987;52.916;6.542;2023-02-08T09:31:55;0.60;99.90
57108;DHT22;42987;52.916;6.542;2023-02-08T09:34:21;0.70;99.90
57108;DHT22;42987;52.916;6.542;2023-02-08T09:36:47;0.70;99.90
57108;DHT22;42987;52.916;6.542;2023-02-08T09:39:20;0.80;99.90
57108;DHT22;42987;52.916;6.542;2023-02-08T09:47:02;1.00;99.90
57108;DHT22;42987;52.916;6.542;2023-02-08T09:49:34;1.10;99.90
57108;DHT22;42987;52.916;6.542;2023-02-08T09:52:10;1.10;99.90
57108;DHT22;42987;52.916;6.542;2023-02-08T09:55:03;1.10;99.90
57108;DHT22;42987;52.916;6.542;2023-02-08T09:57:34;1.20;99.90
57108;DHT22;42987;52.916;6.542;2023-02-08T10:00:05;1.30;99.90
57108;DHT22;42987;52.916;6.542;2023-02-08T10:02:33;1.30;99.90
57108;DHT22;42987;52.916;6.542;2023-02-08T10:07:26;1.40;99.90
57108;DHT22;42987;52.916;6.542;2023-02-08T10:09:54;1.50;99.90
57108;DHT22;42987;52.916;6.542;2023-02-08T10:12:24;1.60;99.90
57108;DHT22;42987;52.916;6.542;2023-02-08T10:15:06;1.70;99.90
57108;DHT22;42987;52.916;6.542;2023-02-08T10:20:59;1.90;99.90
57108;DHT22;42987;52.916;6.542;2023-02-08T10:24:04;2.00;99.90
57108;DHT22;42987;52.916;6.542;2023-02-08T10:26:44;2.10;99.90
57108;DHT22;42987;52.916;6.542;2023-02-08T10:39:45;2.50;99.90
57108;DHT22;42987;52.916;6.542;2023-02-08T10:42:17;2.60;99.90
57108;DHT22;42987;52.916;6.542;2023-02-08T10:45:24;2.80;99.90
57108;DHT22;42987;52.916;6.542;2023-02-08T10:47:57;2.80;99.90
57108;DHT22;42987;52.916;6.542;2023-02-08T10:52:58;3.00;99.90
57108;DHT22;42987;52.916;6.542;2023-02-08T10:55:25;3.20;99.90
57108;DHT22;42987;52.916;6.542;2023-02-08T10:57:56;3.20;99.90
57108;DHT22;42987;52.916;6.542;2023-02-08T11:00:42;3.30;99.90
57108;DHT22;42987;52.916;6.542;2023-02-08T11:03:28;3.30;99.90
57108;DHT22;42987;52.916;6.542;2023-02-08T11:05:54;3.40;99.90
57108;DHT22;42987;52.916;6.542;2023-02-08T11:08:26;3.40;99.90
57108;DHT22;42987;52.916;6.542;2023-02-08T11:13:47;3.60;99.90
57108;DHT22;42987;52.916;6.542;2023-02-08T11:16:24;3.60;99.90
57108;DHT22;42987;52.916;6.542;2023-02-08T11:18:58;3.70;99.90
57108;DHT22;42987;52.916;6.542;2023-02-08T11:24:00;3.80;99.90
57108;DHT22;42987;52.916;6.542;2023-02-08T11:29:03;4.00;99.90
57108;DHT22;42987;52.916;6.542;2023-02-08T11:31:29;4.00;99.90
57108;DHT22;42987;52.916;6.542;2023-02-08T11:34:03;4.00;99.90
57108;DHT22;42987;52.916;6.542;2023-02-08T11:36:31;4.10;99.90
57108;DHT22;42987;52.916;6.542;2023-02-08T11:39:13;4.20;99.90
57108;DHT22;42987;52.916;6.542;2023-02-08T11:41:43;4.20;99.90
57108;DHT22;42987;52.916;6.542;2023-02-08T11:44:20;4.30;99.90
57108;DHT22;42987;52.916;6.542;2023-02-08T11:46:48;4.40;99.90
57108;DHT22;42987;52.916;6.542;2023-02-08T11:49:24;4.40;99.50
57108;DHT22;42987;52.916;6.542;2023-02-08T11:51:53;4.50;98.60
57108;DHT22;42987;52.916;6.542;2023-02-08T11:54:38;4.50;98.70
57108;DHT22;42987;52.916;6.542;2023-02-08T11:57:22;4.60;98.20
57108;DHT22;42987;52.916;6.542;2023-02-08T12:00:20;4.60;95.70
57108;DHT22;42987;52.916;6.542;2023-02-08T12:02:49;4.70;94.80
57108;DHT22;42987;52.916;6.542;2023-02-08T12:05:17;4.70;94.90
57108;DHT22;42987;52.916;6.542;2023-02-08T12:22:11;5.00;92.70
57108;DHT22;42987;52.916;6.542;2023-02-08T12:30:53;5.10;92.20
57108;DHT22;42987;52.916;6.542;2023-02-08T12:37:12;5.20;88.10
57108;DHT22;42987;52.916;6.542;2023-02-08T12:54:54;5.50;86.70
57108;DHT22;42987;52.916;6.542;2023-02-08T12:57:24;5.50;83.40
57108;DHT22;42987;52.916;6.542;2023-02-08T13:03:11;5.60;81.50
57108;DHT22;42987;52.916;6.542;2023-02-08T13:05:43;5.60;80.70
57108;DHT22;42987;52.916;6.542;2023-02-08T13:08:30;5.80;81.20
57108;DHT22;42987;52.916;6.542;2023-02-08T13:11:03;5.70;80.10
57108;DHT22;42987;52.916;6.542;2023-02-08T13:13:35;5.80;77.70
57108;DHT22;42987;52.916;6.542;2023-02-08T13:16:16;5.80;78.40
57108;DHT22;42987;52.916;6.542;2023-02-08T13:21:32;5.90;78.20
57108;DHT22;42987;52.916;6.542;2023-02-08T13:24:05;5.90;73.80
57108;DHT22;42987;52.916;6.542;2023-02-08T13:26:37;5.90;71.30
57108;DHT22;42987;52.916;6.542;2023-02-08T13:29:04;6.00;73.40
57108;DHT22;42987;52.916;6.542;2023-02-08T13:31:36;6.00;72.50
57108;DHT22;42987;52.916;6.542;2023-02-08T13:36:59;6.00;72.30
57108;DHT22;42987;52.916;6.542;2023-02-08T13:39:38;6.00;73.90
57108;DHT22;42987;52.916;6.542;2023-02-08T13:42:06;6.10;72.00
57108;DHT22;42987;52.916;6.542;2023-02-08T13:44:37;6.10;70.70
57108;DHT22;42987;52.916;6.542;2023-02-08T13:47:06;6.20;70.40
57108;DHT22;42987;52.916;6.542;2023-02-08T13:57:57;6.20;71.10
57108;DHT22;42987;52.916;6.542;2023-02-08T14:00:34;6.20;70.10
57108;DHT22;42987;52.916;6.542;2023-02-08T14:05:48;6.20;69.40
57108;DHT22;42987;52.916;6.542;2023-02-08T14:08:20;6.20;70.10
57108;DHT22;42987;52.916;6.542;2023-02-08T14:13:59;6.20;70.20
57108;DHT22;42987;52.916;6.542;2023-02-08T14:16:36;6.20;70.20
57108;DHT22;42987;52.916;6.542;2023-02-08T14:24:58;6.20;66.70
57108;DHT22;42987;52.916;6.542;2023-02-08T14:27:36;6.20;68.50
57108;DHT22;42987;52.916;6.542;2023-02-08T14:30:07;6.10;70.10
57108;DHT22;42987;52.916;6.542;2023-02-08T14:32:38;6.20;69.10
57108;DHT22;42987;52.916;6.542;2023-02-08T14:35:07;6.20;68.60
57108;DHT22;42987;52.916;6.542;2023-02-08T14:37:36;6.20;68.60
57108;DHT22;42987;52.916;6.542;2023-02-08T14:42:55;6.20;67.00
57108;DHT22;42987;52.916;6.542;2023-02-08T14:45:30;6.30;67.50
57108;DHT22;42987;52.916;6.542;2023-02-08T14:48:24;6.20;66.70
57108;DHT22;42987;52.916;6.542;2023-02-08T14:53:50;6.30;67.50
57108;DHT22;42987;52.916;6.542;2023-02-08T14:56:31;6.30;67.10
57108;DHT22;42987;52.916;6.542;2023-02-08T14:59:05;6.30;67.80
57108;DHT22;42987;52.916;6.542;2023-02-08T15:01:43;6.30;68.30
57108;DHT22;42987;52.916;6.542;2023-02-08T15:04:11;6.30;67.50
57108;DHT22;42987;52.916;6.542;2023-02-08T15:09:18;6.20;69.30
57108;DHT22;42987;52.916;6.542;2023-02-08T15:11:53;6.20;68.50
57108;DHT22;42987;52.916;6.542;2023-02-08T15:14:23;6.10;68.70
57108;DHT22;42987;52.916;6.542;2023-02-08T15:16:49;6.10;67.20
57108;DHT22;42987;52.916;6.542;2023-02-08T15:19:28;6.00;67.20
57108;DHT22;42987;52.916;6.542;2023-02-08T15:21:54;5.90;68.00
57108;DHT22;42987;52.916;6.542;2023-02-08T15:24:52;5.90;68.10
57108;DHT22;42987;52.916;6.542;2023-02-08T15:27:24;5.80;67.20
57108;DHT22;42987;52.916;6.542;2023-02-08T15:29:50;5.80;66.90
57108;DHT22;42987;52.916;6.542;2023-02-08T15:32:19;5.70;67.30
57108;DHT22;42987;52.916;6.542;2023-02-08T15:34:57;5.70;67.70
57108;DHT22;42987;52.916;6.542;2023-02-08T15:37:23;5.70;67.60
57108;DHT22;42987;52.916;6.542;2023-02-08T15:39:52;5.60;66.40
57108;DHT22;42987;52.916;6.542;2023-02-08T15:42:21;5.60;66.10
57108;DHT22;42987;52.916;6.542;2023-02-08T15:44:50;5.50;67.20
57108;DHT22;42987;52.916;6.542;2023-02-08T15:47:33;5.50;67.40
57108;DHT22;42987;52.916;6.542;2023-02-08T15:50:01;5.50;67.70
57108;DHT22;42987;52.916;6.542;2023-02-08T15:52:30;5.40;67.50
57108;DHT22;42987;52.916;6.542;2023-02-08T15:54:57;5.40;67.10
57108;DHT22;42987;52.916;6.542;2023-02-08T15:59:58;5.30;68.00
57108;DHT22;42987;52.916;6.542;2023-02-08T16:02:29;5.20;68.10
57108;DHT22;42987;52.916;6.542;2023-02-08T16:04:57;5.20;69.20
57108;DHT22;42987;52.916;6.542;2023-02-08T16:09:49;4.90;69.00
57108;DHT22;42987;52.916;6.542;2023-02-08T16:12:23;4.90;69.30
57108;DHT22;42987;52.916;6.542;2023-02-08T16:14:50;4.90;69.90
57108;DHT22;42987;52.916;6.542;2023-02-08T16:17:42;4.90;70.40
57108;DHT22;42987;52.916;6.542;2023-02-08T16:20:29;4.70;70.70
57108;DHT22;42987;52.916;6.542;2023-02-08T16:23:20;4.60;70.90
57108;DHT22;42987;52.916;6.542;2023-02-08T16:25:46;4.60;71.40
57108;DHT22;42987;52.916;6.542;2023-02-08T16:28:28;4.40;71.80
57108;DHT22;42987;52.916;6.542;2023-02-08T16:30:56;4.40;72.80
57108;DHT22;42987;52.916;6.542;2023-02-08T16:33:23;4.20;73.40
57108;DHT22;42987;52.916;6.542;2023-02-08T16:35:49;4.20;75.00
57108;DHT22;42987;52.916;6.542;2023-02-08T16:38:22;4.10;75.10
57108;DHT22;42987;52.916;6.542;2023-02-08T16:40:53;4.10;75.20
57108;DHT22;42987;52.916;6.542;2023-02-08T16:43:29;4.00;76.00
57108;DHT22;42987;52.916;6.542;2023-02-08T16:46:17;3.90;76.30
57108;DHT22;42987;52.916;6.542;2023-02-08T16:51:30;3.70;78.00
57108;DHT22;42987;52.916;6.542;2023-02-08T16:54:01;3.50;79.30
57108;DHT22;42987;52.916;6.542;2023-02-08T16:56:34;3.40;80.30
57108;DHT22;42987;52.916;6.542;2023-02-08T16:59:00;3.30;80.40
57108;DHT22;42987;52.916;6.542;2023-02-08T17:01:25;3.30;81.70
57108;DHT22;42987;52.916;6.542;2023-02-08T17:03:53;3.20;83.20
57108;DHT22;42987;52.916;6.542;2023-02-08T17:08:56;3.20;86.00
57108;DHT22;42987;52.916;6.542;2023-02-08T17:11:21;3.20;85.50
57108;DHT22;42987;52.916;6.542;2023-02-08T17:13:47;3.20;84.90
57108;DHT22;42987;52.916;6.542;2023-02-08T17:16:19;3.20;84.20
57108;DHT22;42987;52.916;6.542;2023-02-08T17:18:45;3.10;84.50
57108;DHT22;42987;52.916;6.542;2023-02-08T17:21:12;3.10;84.50
57108;DHT22;42987;52.916;6.542;2023-02-08T17:23:38;3.00;85.00
57108;DHT22;42987;52.916;6.542;2023-02-08T17:26:12;3.00;85.70
57108;DHT22;42987;52.916;6.542;2023-02-08T17:28:39;3.00;85.90
57108;DHT22;42987;52.916;6.542;2023-02-08T17:31:05;3.00;86.10
57108;DHT22;42987;52.916;6.542;2023-02-08T17:33:30;3.00;86.30
57108;DHT22;42987;52.916;6.542;2023-02-08T17:36:01;3.00;86.40
57108;DHT22;42987;52.916;6.542;2023-02-08T17:38:27;3.00;86.80
57108;DHT22;42987;52.916;6.542;2023-02-08T17:40:53;2.90;87.70
57108;DHT22;42987;52.916;6.542;2023-02-08T17:43:18;2.90;87.90
57108;DHT22;42987;52.916;6.542;2023-02-08T17:45:44;2.90;86.90
57108;DHT22;42987;52.916;6.542;2023-02-08T17:48:11;3.00;87.40
57108;DHT22;42987;52.916;6.542;2023-02-08T17:50:42;3.00;86.60
57108;DHT22;42987;52.916;6.542;2023-02-08T17:53:08;3.00;86.20
57108;DHT22;42987;52.916;6.542;2023-02-08T17:55:34;3.00;86.00
57108;DHT22;42987;52.916;6.542;2023-02-08T17:58:00;3.00;86.00
57108;DHT22;42987;52.916;6.542;2023-02-08T18:00:25;2.90;86.40
57108;DHT22;42987;52.916;6.542;2023-02-08T18:02:53;2.90;86.70
57108;DHT22;42987;52.916;6.542;2023-02-08T18:05:24;2.80;87.10
57108;DHT22;42987;52.916;6.542;2023-02-08T18:07:52;2.80;88.30
57108;DHT22;42987;52.916;6.542;2023-02-08T18:10:19;2.70;89.00
57108;DHT22;42987;52.916;6.542;2023-02-08T18:12:45;2.70;89.70
57108;DHT22;42987;52.916;6.542;2023-02-08T18:15:14;2.60;90.10
57108;DHT22;42987;52.916;6.542;2023-02-08T18:17:42;2.60;90.30
57108;DHT22;42987;52.916;6.542;2023-02-08T18:20:10;2.60;90.30
57108;DHT22;42987;52.916;6.542;2023-02-08T18:22:36;2.60;90.10
57108;DHT22;42987;52.916;6.542;2023-02-08T18:25:03;2.60;89.80
57108;DHT22;42987;52.916;6.542;2023-02-08T18:27:30;2.60;89.30
57108;DHT22;42987;52.916;6.542;2023-02-08T18:29:56;2.50;89.10
57108;DHT22;42987;52.916;6.542;2023-02-08T18:32:22;2.50;88.90
57108;DHT22;42987;52.916;6.542;2023-02-08T18:34:48;2.50;88.70
57108;DHT22;42987;52.916;6.542;2023-02-08T18:37:14;2.50;88.60
57108;DHT22;42987;52.916;6.542;2023-02-08T18:39:43;2.50;88.80
57108;DHT22;42987;52.916;6.542;2023-02-08T18:42:09;2.50;88.60
57108;DHT22;42987;52.916;6.542;2023-02-08T18:44:37;2.50;87.80